Time;durP1;ratioP1;P1;durP2;ratioP2;P2;SDS_P1;SDS_P2;PMS_P1;PMS_P2;Temp;Humidity;BMP_temperature;BMP_pressure;BME280_temperature;BME280_humidity;BME280_pressure;Samples;Min_cycle;Max_cycle;Signal;HPM_P1;HPM_P2
2022/02/11 00:00:50;;;;;;;781.53;321.27;;;;;;;;;;4950916;28;20120;-82
2022/02/11 00:06:24;;;;;;;785.92;331.65;;;;;;;;;;4950674;28;20223;-81
2022/02/11 00:08:38;;;;;;;781.63;328.13;;;;;;;;;;4947246;28;20050;-81
2022/02/11 00:11:04;;;;;;;781.63;325.85;;;;;;;;;;4971045;28;20031;-82
2022/02/11 00:13:30;;;;;;;780.80;327.73;;;;;;;;;;4956420;28;20026;-81
2022/02/11 00:15:58;;;;;;;783.78;325.98;;;;;;;;;;4957834;28;20514;-82
2022/02/11 00:18:24;;;;;;;782.65;330.33;;;;;;;;;;4943871;28;20402;-81
2022/02/11 00:20:50;;;;;;;788.83;343.25;;;;;;;;;;4939691;28;20027;-82
2022/02/11 00:23:17;;;;;;;783.45;335.85;;;;;;;;;;4946826;28;20019;-82
2022/02/11 00:25:49;;;;;;;786.22;334.27;;;;;;;;;;4948400;28;20244;-82
2022/02/11 00:33:44;;;;;;;784.25;333.67;;;;;;;;;;4951913;28;20046;-82
2022/02/11 00:36:12;;;;;;;785.97;338.67;;;;;;;;;;4964812;28;20023;-82
2022/02/11 01:06:09;;;;;;;785.13;340.83;;;;;;;;;;4961383;28;20036;-83
2022/02/11 01:08:35;;;;;;;787.70;345.98;;;;;;;;;;5003060;28;20044;-82
2022/02/11 01:11:02;;;;;;;789.20;346.17;;;;;;;;;;4967236;28;20506;-83
2022/02/11 01:13:28;;;;;;;789.78;349.05;;;;;;;;;;4991261;28;20029;-84
2022/02/11 01:16:02;;;;;;;790.20;341.35;;;;;;;;;;4951193;28;20089;-83
2022/02/11 01:18:28;;;;;;;785.38;347.00;;;;;;;;;;4949127;28;20486;-82
2022/02/11 01:21:03;;;;;;;785.30;341.38;;;;;;;;;;4944662;28;20031;-81
2022/02/11 01:23:48;;;;;;;783.72;333.27;;;;;;;;;;4989363;28;20062;-82
2022/02/11 01:26:36;;;;;;;783.58;328.15;;;;;;;;;;4943739;28;20416;-82
2022/02/11 01:45:46;;;;;;;788.33;341.60;;;;;;;;;;4976114;28;20100;-84
2022/02/11 01:56:18;;;;;;;781.33;340.90;;;;;;;;;;4981699;28;20041;-82
2022/02/11 02:12:51;;;;;;;782.92;333.52;;;;;;;;;;4965422;28;20049;-82
2022/02/11 02:37:37;;;;;;;782.05;329.88;;;;;;;;;;4967214;28;20043;-82
2022/02/11 02:50:12;;;;;;;781.03;326.73;;;;;;;;;;4963524;28;20235;-81
2022/02/11 02:56:55;;;;;;;779.83;328.98;;;;;;;;;;4952971;28;20127;-81
2022/02/11 02:59:58;;;;;;;782.47;330.58;;;;;;;;;;4972946;28;20624;-82
2022/02/11 04:24:02;;;;;;;788.75;357.58;;;;;;;;;;4970872;28;20416;-80
2022/02/11 04:56:10;;;;;;;785.35;345.30;;;;;;;;;;4935193;28;20027;-79
2022/02/11 05:01:20;;;;;;;783.05;339.45;;;;;;;;;;4984333;28;20085;-82
2022/02/11 05:03:46;;;;;;;787.45;348.30;;;;;;;;;;4979758;28;20098;-81
2022/02/11 05:06:12;;;;;;;786.50;349.73;;;;;;;;;;4962863;28;20037;-79
2022/02/11 05:08:38;;;;;;;787.10;349.75;;;;;;;;;;4944945;28;20035;-81
2022/02/11 05:11:09;;;;;;;787.03;349.75;;;;;;;;;;4981652;28;20031;-80
2022/02/11 05:13:35;;;;;;;787.58;348.08;;;;;;;;;;4962012;28;20489;-81
2022/02/11 05:16:01;;;;;;;788.53;354.02;;;;;;;;;;4989743;28;20025;-81
2022/02/11 05:18:27;;;;;;;789.47;352.52;;;;;;;;;;4957679;28;20038;-79
2022/02/11 05:20:53;;;;;;;787.70;349.70;;;;;;;;;;4943579;28;20088;-80
2022/02/11 05:23:19;;;;;;;787.08;353.67;;;;;;;;;;4972538;28;20039;-79
2022/02/11 05:25:45;;;;;;;786.60;349.85;;;;;;;;;;4967284;28;20039;-80
2022/02/11 05:28:12;;;;;;;788.03;349.13;;;;;;;;;;4962337;28;20021;-80
2022/02/11 05:30:38;;;;;;;783.08;346.45;;;;;;;;;;4972744;28;20120;-80
2022/02/11 05:33:05;;;;;;;786.03;346.83;;;;;;;;;;4977109;28;20372;-76
2022/02/11 05:35:31;;;;;;;782.40;342.65;;;;;;;;;;4979200;28;20216;-77
2022/02/11 05:37:57;;;;;;;785.40;345.73;;;;;;;;;;4975575;28;20033;-80
2022/02/11 05:40:23;;;;;;;790.38;357.05;;;;;;;;;;4966373;28;20036;-81
2022/02/11 05:42:49;;;;;;;783.17;346.35;;;;;;;;;;4955733;28;20031;-78
2022/02/11 05:45:17;;;;;;;786.95;349.35;;;;;;;;;;4958491;28;20082;-81
2022/02/11 05:47:43;;;;;;;783.20;345.02;;;;;;;;;;4960920;28;20507;-80
2022/02/11 05:50:09;;;;;;;800.35;348.88;;;;;;;;;;4957883;28;20031;-77
2022/02/11 05:52:35;;;;;;;788.88;350.85;;;;;;;;;;4971626;28;20052;-81
2022/02/11 05:55:01;;;;;;;789.38;354.83;;;;;;;;;;4959556;28;20040;-79
2022/02/11 05:57:27;;;;;;;786.00;351.98;;;;;;;;;;4966612;28;20046;-81
2022/02/11 05:59:56;;;;;;;786.15;349.60;;;;;;;;;;4972576;28;20023;-80
2022/02/11 06:02:22;;;;;;;787.35;349.63;;;;;;;;;;4983381;28;20023;-81
2022/02/11 06:04:48;;;;;;;784.85;346.73;;;;;;;;;;4984991;28;20025;-80
2022/02/11 06:07:15;;;;;;;790.60;352.60;;;;;;;;;;4949242;28;20289;-81
2022/02/11 06:09:41;;;;;;;806.05;348.58;;;;;;;;;;4958555;28;20046;-80
2022/02/11 06:12:07;;;;;;;792.05;355.98;;;;;;;;;;4986342;28;20031;-80
2022/02/11 06:14:38;;;;;;;788.88;350.65;;;;;;;;;;4974832;28;20027;-81
2022/02/11 06:17:04;;;;;;;809.20;340.10;;;;;;;;;;4975185;28;20025;-80
2022/02/11 06:19:30;;;;;;;787.90;354.38;;;;;;;;;;4973900;28;20044;-81
2022/02/11 06:21:56;;;;;;;783.10;343.48;;;;;;;;;;4962153;28;20040;-80
2022/02/11 06:24:22;;;;;;;787.10;350.30;;;;;;;;;;4977348;28;20436;-81
2022/02/11 06:26:48;;;;;;;785.40;353.17;;;;;;;;;;4984774;28;20027;-81
2022/02/11 06:29:14;;;;;;;788.53;349.48;;;;;;;;;;4978069;28;20469;-81
2022/02/11 06:31:40;;;;;;;795.92;356.83;;;;;;;;;;4953879;28;20029;-80
2022/02/11 06:34:06;;;;;;;787.17;352.25;;;;;;;;;;4952059;28;20031;-81
2022/02/11 06:36:33;;;;;;;788.20;352.23;;;;;;;;;;4983369;28;20103;-81
2022/02/11 06:38:59;;;;;;;790.20;358.80;;;;;;;;;;4972620;28;20036;-81
2022/02/11 06:41:26;;;;;;;784.88;344.27;;;;;;;;;;4949417;28;20480;-81
2022/02/11 06:43:53;;;;;;;785.28;346.65;;;;;;;;;;4962558;28;20514;-80
2022/02/11 06:46:21;;;;;;;787.78;346.23;;;;;;;;;;4965535;28;20031;-80
2022/02/11 06:48:48;;;;;;;790.10;354.23;;;;;;;;;;4965821;28;20219;-80
2022/02/11 06:51:14;;;;;;;787.03;346.67;;;;;;;;;;4990469;28;20031;-80
2022/02/11 06:53:40;;;;;;;789.92;350.90;;;;;;;;;;4977529;28;20044;-81
2022/02/11 06:56:06;;;;;;;787.33;349.13;;;;;;;;;;4957443;28;20339;-80
2022/02/11 06:58:33;;;;;;;788.72;351.17;;;;;;;;;;4956157;28;20990;-80
2022/02/11 07:00:59;;;;;;;789.58;353.88;;;;;;;;;;4975987;28;20039;-80
2022/02/11 07:03:26;;;;;;;791.80;360.17;;;;;;;;;;4973761;28;20112;-81
2022/02/11 07:05:54;;;;;;;792.22;362.63;;;;;;;;;;4956987;28;20058;-81
2022/02/11 07:08:20;;;;;;;794.50;364.20;;;;;;;;;;4971698;28;20064;-81
2022/02/11 07:10:46;;;;;;;793.72;366.55;;;;;;;;;;4954753;28;20035;-79
2022/02/11 07:13:15;;;;;;;790.38;355.45;;;;;;;;;;4961668;28;20584;-80
2022/02/11 07:15:42;;;;;;;793.17;357.17;;;;;;;;;;4979974;28;20118;-80
2022/02/11 07:18:08;;;;;;;789.45;354.95;;;;;;;;;;4982964;28;20036;-80
2022/02/11 07:20:35;;;;;;;787.55;355.60;;;;;;;;;;4966528;28;20550;-81
2022/02/11 07:23:01;;;;;;;788.75;350.15;;;;;;;;;;4964684;28;20077;-79
2022/02/11 07:25:27;;;;;;;791.78;355.80;;;;;;;;;;4956918;28;20499;-80
2022/02/11 07:27:53;;;;;;;792.50;353.58;;;;;;;;;;4966613;28;20031;-80
2022/02/11 07:30:20;;;;;;;789.85;354.33;;;;;;;;;;4951248;28;20450;-79
2022/02/11 07:32:47;;;;;;;793.05;353.10;;;;;;;;;;4965339;28;20035;-80
2022/02/11 07:35:13;;;;;;;793.78;355.60;;;;;;;;;;4949593;28;20136;-80
2022/02/11 07:37:40;;;;;;;790.05;355.58;;;;;;;;;;4964314;28;20582;-80
2022/02/11 07:40:06;;;;;;;789.00;351.13;;;;;;;;;;4958237;28;20039;-80
2022/02/11 07:42:33;;;;;;;789.40;353.15;;;;;;;;;;4963426;28;20089;-80
2022/02/11 07:44:59;;;;;;;793.35;358.05;;;;;;;;;;4950090;28;20081;-80
2022/02/11 07:47:27;;;;;;;791.25;355.65;;;;;;;;;;4959380;28;20063;-79
2022/02/11 07:49:53;;;;;;;794.63;368.75;;;;;;;;;;4957385;28;20519;-79
2022/02/11 07:52:20;;;;;;;797.22;376.73;;;;;;;;;;4936578;28;20030;-79
2022/02/11 07:54:46;;;;;;;795.72;375.52;;;;;;;;;;4950211;28;20035;-79
2022/02/11 07:57:13;;;;;;;798.83;384.15;;;;;;;;;;4946435;28;20031;-79
2022/02/11 07:59:39;;;;;;;800.88;386.80;;;;;;;;;;4960718;28;20047;-79
2022/02/11 08:02:05;;;;;;;802.90;394.85;;;;;;;;;;4956444;28;20118;-79
2022/02/11 08:04:32;;;;;;;798.60;388.27;;;;;;;;;;4948488;28;20434;-79
2022/02/11 08:06:58;;;;;;;802.72;394.15;;;;;;;;;;4976685;28;20078;-79
2022/02/11 08:09:24;;;;;;;801.13;392.73;;;;;;;;;;4985036;28;20050;-79
2022/02/11 08:11:50;;;;;;;807.10;404.38;;;;;;;;;;4963656;28;20035;-80
2022/02/11 08:14:16;;;;;;;814.03;427.05;;;;;;;;;;4971652;28;20474;-80
2022/02/11 08:16:43;;;;;;;813.08;431.50;;;;;;;;;;4953626;28;20088;-79
2022/02/11 08:19:09;;;;;;;815.15;444.20;;;;;;;;;;4962936;28;20474;-79
2022/02/11 08:21:35;;;;;;;818.05;454.88;;;;;;;;;;4968265;28;20079;-79
2022/02/11 08:24:01;;;;;;;825.17;473.75;;;;;;;;;;4961556;28;20043;-80
2022/02/11 08:26:29;;;;;;;827.95;474.05;;;;;;;;;;4954621;28;20406;-79
2022/02/11 08:28:56;;;;;;;825.10;480.38;;;;;;;;;;4958466;28;20027;-79
2022/02/11 08:31:22;;;;;;;821.97;467.80;;;;;;;;;;4955539;28;20643;-81
2022/02/11 08:33:49;;;;;;;822.03;459.55;;;;;;;;;;4981359;28;20139;-79
2022/02/11 08:36:15;;;;;;;817.28;444.27;;;;;;;;;;4980976;28;20027;-80
2022/02/11 08:38:42;;;;;;;809.55;425.80;;;;;;;;;;4953472;28;20031;-79
2022/02/11 08:41:14;;;;;;;807.72;421.63;;;;;;;;;;4971354;28;20029;-81
2022/02/11 08:43:40;;;;;;;809.03;416.73;;;;;;;;;;4951272;28;20043;-80
2022/02/11 08:46:06;;;;;;;808.30;411.77;;;;;;;;;;4971186;28;20088;-79
2022/02/11 08:48:32;;;;;;;805.30;407.80;;;;;;;;;;4957736;28;20471;-79
2022/02/11 08:50:58;;;;;;;801.22;403.13;;;;;;;;;;4976014;28;20373;-80
2022/02/11 08:53:24;;;;;;;803.08;403.45;;;;;;;;;;4980645;28;20021;-79
2022/02/11 08:55:50;;;;;;;806.08;403.30;;;;;;;;;;4979345;28;20430;-80
2022/02/11 08:58:20;;;;;;;804.78;402.85;;;;;;;;;;4947268;28;20485;-80
2022/02/11 09:00:49;;;;;;;806.10;402.25;;;;;;;;;;4970324;28;20491;-80
2022/02/11 09:03:19;;;;;;;808.80;407.55;;;;;;;;;;4968434;28;20093;-80
2022/02/11 09:05:46;;;;;;;803.30;400.67;;;;;;;;;;4930311;28;20055;-79
2022/02/11 09:08:12;;;;;;;804.60;400.52;;;;;;;;;;4951204;28;20051;-79
2022/02/11 09:10:39;;;;;;;804.17;400.48;;;;;;;;;;4955455;28;20044;-79
2022/02/11 09:13:05;;;;;;;805.65;398.05;;;;;;;;;;4936448;29;20109;-80
2022/02/11 09:15:31;;;;;;;806.92;407.15;;;;;;;;;;4979758;28;20399;-80
2022/02/11 09:17:58;;;;;;;806.65;406.27;;;;;;;;;;4957309;28;20035;-80
2022/02/11 09:20:25;;;;;;;807.95;406.48;;;;;;;;;;4969463;28;20037;-79
2022/02/11 09:22:51;;;;;;;808.00;406.95;;;;;;;;;;4967102;28;20058;-79
2022/02/11 09:25:37;;;;;;;804.15;397.42;;;;;;;;;;4960725;28;20398;-80
2022/02/11 09:28:03;;;;;;;806.80;404.20;;;;;;;;;;4951202;28;20032;-80
2022/02/11 09:30:31;;;;;;;809.67;409.05;;;;;;;;;;4968859;28;20031;-80
2022/02/11 09:32:59;;;;;;;809.50;409.48;;;;;;;;;;4984399;28;20035;-79
2022/02/11 09:35:28;;;;;;;808.53;409.63;;;;;;;;;;4978816;28;20056;-80
2022/02/11 09:37:54;;;;;;;809.03;410.63;;;;;;;;;;4973839;28;20025;-80
2022/02/11 09:40:20;;;;;;;809.35;413.55;;;;;;;;;;4952632;28;20032;-81
2022/02/11 09:42:46;;;;;;;810.70;418.38;;;;;;;;;;4969657;28;20024;-80
2022/02/11 09:45:14;;;;;;;814.00;426.08;;;;;;;;;;4968342;28;20027;-81
2022/02/11 09:47:40;;;;;;;817.20;434.42;;;;;;;;;;4966032;28;20024;-80
2022/02/11 09:50:06;;;;;;;817.28;446.10;;;;;;;;;;4954724;28;20027;-81
2022/02/11 09:52:38;;;;;;;814.88;436.70;;;;;;;;;;4997202;28;20042;-81
2022/02/11 09:57:49;;;;;;;815.25;436.17;;;;;;;;;;4964754;28;20437;-80
2022/02/11 10:00:15;;;;;;;816.25;438.45;;;;;;;;;;4964541;28;20589;-80
2022/02/11 10:02:52;;;;;;;815.13;436.75;;;;;;;;;;4948417;28;20027;-80
2022/02/11 10:05:26;;;;;;;817.58;439.00;;;;;;;;;;4953706;28;20039;-80
2022/02/11 10:07:53;;;;;;;822.00;451.33;;;;;;;;;;4943369;28;20129;-79
2022/02/11 10:10:38;;;;;;;822.38;454.88;;;;;;;;;;4971009;28;20075;-80
2022/02/11 10:13:07;;;;;;;818.72;446.90;;;;;;;;;;4945790;28;20130;-81
2022/02/11 10:15:34;;;;;;;818.20;449.30;;;;;;;;;;4982897;28;20376;-79
2022/02/11 10:18:01;;;;;;;819.70;451.27;;;;;;;;;;4944178;28;20031;-79
2022/02/11 10:20:29;;;;;;;821.08;451.25;;;;;;;;;;5032276;28;20085;-80
2022/02/11 10:23:11;;;;;;;826.42;470.67;;;;;;;;;;4963525;28;20484;-80
2022/02/11 10:25:52;;;;;;;828.85;479.77;;;;;;;;;;4958168;28;20574;-79
2022/02/11 10:28:23;;;;;;;832.88;495.58;;;;;;;;;;4948699;28;20049;-80
2022/02/11 10:31:03;;;;;;;834.80;501.45;;;;;;;;;;4969034;28;20045;-80
2022/02/11 10:33:29;;;;;;;837.00;507.53;;;;;;;;;;4943949;28;20031;-80
2022/02/11 10:35:56;;;;;;;844.30;534.63;;;;;;;;;;4957306;28;20062;-81
2022/02/11 10:38:29;;;;;;;834.08;512.22;;;;;;;;;;4987433;28;20027;-81
2022/02/11 10:41:00;;;;;;;832.58;504.88;;;;;;;;;;4982160;28;20037;-80
2022/02/11 10:43:31;;;;;;;831.42;496.23;;;;;;;;;;4947282;29;20031;-81
2022/02/11 10:46:04;;;;;;;829.83;488.58;;;;;;;;;;4957818;28;20046;-80
2022/02/11 10:48:36;;;;;;;829.50;491.38;;;;;;;;;;4984579;28;20034;-81
2022/02/11 10:51:06;;;;;;;828.03;480.27;;;;;;;;;;4969751;28;20049;-80
2022/02/11 10:53:34;;;;;;;830.45;487.80;;;;;;;;;;4976394;28;20029;-81
2022/02/11 10:56:02;;;;;;;828.30;479.23;;;;;;;;;;4961506;28;20029;-80
2022/02/11 10:58:28;;;;;;;820.72;463.52;;;;;;;;;;4960950;28;20042;-79
2022/02/11 11:01:01;;;;;;;821.17;461.85;;;;;;;;;;4946898;28;20054;-81
2022/02/11 11:03:33;;;;;;;821.45;462.33;;;;;;;;;;4975499;28;20053;-78
2022/02/11 11:06:01;;;;;;;819.70;453.20;;;;;;;;;;4976905;28;20449;-81
2022/02/11 11:08:29;;;;;;;820.92;457.40;;;;;;;;;;4972918;28;20082;-80
2022/02/11 11:10:57;;;;;;;825.40;470.10;;;;;;;;;;4957762;28;20019;-80
2022/02/11 11:13:23;;;;;;;824.97;470.25;;;;;;;;;;4962343;28;20309;-81
2022/02/11 11:15:51;;;;;;;828.53;475.75;;;;;;;;;;4962450;28;20035;-82
2022/02/11 11:18:18;;;;;;;826.95;473.02;;;;;;;;;;4971631;28;20027;-81
2022/02/11 11:20:45;;;;;;;818.92;454.00;;;;;;;;;;4944661;28;20433;-80
2022/02/11 11:23:21;;;;;;;824.00;465.17;;;;;;;;;;4953351;28;20042;-81
2022/02/11 11:25:54;;;;;;;821.88;456.88;;;;;;;;;;4957808;28;20027;-81
2022/02/11 11:28:39;;;;;;;821.97;458.48;;;;;;;;;;4951376;28;20038;-81
2022/02/11 11:31:11;;;;;;;822.40;452.55;;;;;;;;;;5027303;28;20036;-79
2022/02/11 11:33:37;;;;;;;816.58;439.55;;;;;;;;;;4944255;28;20471;-78
2022/02/11 11:36:05;;;;;;;821.28;453.13;;;;;;;;;;4979031;28;20387;-79
2022/02/11 11:38:41;;;;;;;821.15;450.50;;;;;;;;;;4964089;28;20114;-81
2022/02/11 11:41:11;;;;;;;816.38;440.02;;;;;;;;;;4972524;28;20031;-81
2022/02/11 11:43:37;;;;;;;;;;;;;;;;;;4978787;28;20071;-80
2022/02/11 11:46:03;;;;;;;814.28;430.40;;;;;;;;;;4978118;28;19961;-81
2022/02/11 11:48:40;;;;;;;820.65;450.35;;;;;;;;;;4970053;28;20028;-81
2022/02/11 11:51:06;;;;;;;820.72;454.92;;;;;;;;;;4952950;28;20085;-81
2022/02/11 11:53:32;;;;;;;824.50;460.58;;;;;;;;;;4961502;28;20035;-81
2022/02/11 11:55:58;;;;;;;826.35;466.58;;;;;;;;;;4973488;28;20638;-82
2022/02/11 11:58:43;;;;;;;825.05;464.42;;;;;;;;;;4966252;28;20084;-79
2022/02/11 12:01:17;;;;;;;824.60;461.63;;;;;;;;;;4978070;28;20044;-81
2022/02/11 12:04:02;;;;;;;821.15;455.58;;;;;;;;;;4946282;28;20035;-80
2022/02/11 12:06:30;;;;;;;825.67;452.67;;;;;;;;;;4961914;28;20621;-78
2022/02/11 12:08:57;;;;;;;820.45;456.00;;;;;;;;;;4963280;28;20514;-79
2022/02/11 12:11:43;;;;;;;821.40;456.17;;;;;;;;;;4963651;28;20130;-81
2022/02/11 12:14:09;;;;;;;820.25;449.33;;;;;;;;;;4949831;28;20088;-81
2022/02/11 12:16:36;;;;;;;825.67;463.65;;;;;;;;;;4972574;28;20034;-80
2022/02/11 12:19:02;;;;;;;819.90;452.95;;;;;;;;;;4961039;28;20040;-81
2022/02/11 12:21:28;;;;;;;818.67;450.85;;;;;;;;;;4967427;28;20039;-79
2022/02/11 12:29:26;;;;;;;824.03;457.17;;;;;;;;;;4981340;28;20500;-81
2022/02/11 12:31:55;;;;;;;818.25;449.98;;;;;;;;;;4938911;29;20035;-82
2022/02/11 12:34:21;;;;;;;822.33;455.38;;;;;;;;;;4981067;28;20029;-80
2022/02/11 12:36:48;;;;;;;823.45;461.10;;;;;;;;;;4960262;28;20037;-80
2022/02/11 12:39:21;;;;;;;822.80;457.55;;;;;;;;;;4946388;28;20031;-81
2022/02/11 12:41:51;;;;;;;824.55;463.75;;;;;;;;;;4968118;28;20044;-80
2022/02/11 12:44:30;;;;;;;828.35;476.20;;;;;;;;;;4993356;28;20557;-81
2022/02/11 12:46:59;;;;;;;826.92;476.88;;;;;;;;;;4975755;28;20524;-81
2022/02/11 12:49:25;;;;;;;824.47;474.63;;;;;;;;;;4987828;28;20359;-82
2022/02/11 12:51:52;;;;;;;842.65;483.17;;;;;;;;;;4960178;28;20024;-81
2022/02/11 12:54:21;;;;;;;828.97;477.83;;;;;;;;;;4970737;28;20035;-81
2022/02/11 12:56:49;;;;;;;828.42;481.63;;;;;;;;;;4967726;28;20036;-78
2022/02/11 12:59:15;;;;;;;824.47;469.15;;;;;;;;;;4967287;28;20031;-81
2022/02/11 13:01:41;;;;;;;821.20;458.65;;;;;;;;;;4962428;28;20043;-80
2022/02/11 13:04:08;;;;;;;826.03;468.10;;;;;;;;;;4975078;28;20181;-78
2022/02/11 13:06:35;;;;;;;820.03;456.17;;;;;;;;;;4951276;28;20043;-79
2022/02/11 13:09:05;;;;;;;823.00;453.10;;;;;;;;;;4975943;28;20108;-80
2022/02/11 13:11:31;;;;;;;822.20;450.35;;;;;;;;;;5026388;28;20027;-81
2022/02/11 13:14:05;;;;;;;825.55;461.25;;;;;;;;;;4960062;28;20039;-81
2022/02/11 13:16:34;;;;;;;821.58;458.65;;;;;;;;;;4967534;28;20035;-79
2022/02/11 13:19:17;;;;;;;821.17;453.70;;;;;;;;;;4944785;28;20391;-80
2022/02/11 13:21:44;;;;;;;820.45;448.65;;;;;;;;;;4993646;28;20034;-80
2022/02/11 13:24:10;;;;;;;817.00;442.23;;;;;;;;;;4962379;28;20042;-79
2022/02/11 13:26:37;;;;;;;819.13;450.77;;;;;;;;;;4969580;28;20031;-79
2022/02/11 13:29:03;;;;;;;820.53;445.75;;;;;;;;;;4972848;28;20027;-80
2022/02/11 13:31:44;;;;;;;821.08;444.30;;;;;;;;;;4962690;28;20024;-80
2022/02/11 13:34:11;;;;;;;821.22;451.98;;;;;;;;;;4949512;28;20039;-80
2022/02/11 13:36:40;;;;;;;821.40;449.48;;;;;;;;;;4966527;28;20058;-80
2022/02/11 13:39:06;;;;;;;823.95;454.88;;;;;;;;;;4958013;28;20037;-80
2022/02/11 13:41:38;;;;;;;826.03;459.60;;;;;;;;;;4964675;28;20031;-81
2022/02/11 13:44:06;;;;;;;829.50;458.02;;;;;;;;;;4958979;28;20028;-81
2022/02/11 13:46:37;;;;;;;824.05;459.55;;;;;;;;;;4950793;28;20033;-80
2022/02/11 13:49:06;;;;;;;821.45;460.63;;;;;;;;;;4986298;28;20035;-81
2022/02/11 13:51:35;;;;;;;822.40;456.73;;;;;;;;;;4974762;28;20057;-81
2022/02/11 13:54:14;;;;;;;824.40;464.77;;;;;;;;;;4954521;28;20032;-81
2022/02/11 13:56:41;;;;;;;822.40;455.20;;;;;;;;;;4967970;28;20047;-80
2022/02/11 13:59:08;;;;;;;824.90;462.27;;;;;;;;;;4953000;28;20047;-80
2022/02/11 14:01:36;;;;;;;821.05;457.67;;;;;;;;;;4960072;28;20031;-80
2022/02/11 14:04:03;;;;;;;825.17;460.30;;;;;;;;;;4977306;28;20039;-80
2022/02/11 14:06:36;;;;;;;828.63;471.25;;;;;;;;;;4981440;28;20047;-80
2022/02/11 14:09:02;;;;;;;825.85;464.23;;;;;;;;;;4980444;28;20033;-80
2022/02/11 14:11:33;;;;;;;824.60;464.23;;;;;;;;;;4957619;28;20454;-82
2022/02/11 14:14:07;;;;;;;827.85;470.90;;;;;;;;;;4967251;28;20274;-81
2022/02/11 14:16:33;;;;;;;822.85;456.55;;;;;;;;;;4976458;28;20035;-81
2022/02/11 14:18:59;;;;;;;826.90;473.40;;;;;;;;;;4982593;28;20039;-80
2022/02/11 14:21:25;;;;;;;829.50;480.35;;;;;;;;;;4971614;28;20043;-81
2022/02/11 14:23:51;;;;;;;826.70;470.83;;;;;;;;;;4963924;28;20047;-81
2022/02/11 14:26:17;;;;;;;831.17;480.63;;;;;;;;;;4956734;28;20545;-81
2022/02/11 14:28:43;;;;;;;829.58;483.40;;;;;;;;;;4982488;28;20031;-82
2022/02/11 14:31:12;;;;;;;827.40;472.90;;;;;;;;;;4982450;28;20035;-81
2022/02/11 14:33:38;;;;;;;824.58;464.70;;;;;;;;;;4976943;28;20037;-81
2022/02/11 14:36:04;;;;;;;829.22;469.95;;;;;;;;;;4956950;28;20122;-81
2022/02/11 14:38:31;;;;;;;853.20;470.35;;;;;;;;;;4952439;28;21310;-81
2022/02/11 14:43:41;;;;;;;828.42;466.52;;;;;;;;;;4973922;28;20449;-80
2022/02/11 14:46:07;;;;;;;827.00;472.30;;;;;;;;;;4997475;28;20035;-81
2022/02/11 14:48:33;;;;;;;829.22;477.25;;;;;;;;;;4979588;28;20112;-80
2022/02/11 14:51:01;;;;;;;828.35;465.17;;;;;;;;;;4980216;28;20029;-81
2022/02/11 14:53:27;;;;;;;831.47;477.42;;;;;;;;;;4955245;28;20034;-81
2022/02/11 14:55:53;;;;;;;828.75;473.08;;;;;;;;;;4964799;28;20031;-81
2022/02/11 14:58:19;;;;;;;822.20;466.25;;;;;;;;;;4972726;28;20042;-80
2022/02/11 15:00:45;;;;;;;825.88;467.88;;;;;;;;;;4983609;28;20505;-81
2022/02/11 15:03:11;;;;;;;828.58;469.13;;;;;;;;;;4967894;28;20032;-81
2022/02/11 15:05:37;;;;;;;830.42;472.67;;;;;;;;;;4957247;28;20455;-80
2022/02/11 15:08:03;;;;;;;820.55;444.42;;;;;;;;;;4960396;28;20053;-80
2022/02/11 15:10:29;;;;;;;825.55;458.17;;;;;;;;;;4954614;28;20115;-80
2022/02/11 15:12:56;;;;;;;826.95;460.40;;;;;;;;;;4957392;28;20077;-81
2022/02/11 15:15:22;;;;;;;819.25;441.88;;;;;;;;;;4955349;28;20464;-80
2022/02/11 15:17:48;;;;;;;821.08;450.25;;;;;;;;;;4959135;28;20033;-81
2022/02/11 15:20:14;;;;;;;824.45;456.63;;;;;;;;;;4939318;28;20042;-82
2022/02/11 15:22:40;;;;;;;822.58;444.73;;;;;;;;;;4947171;28;20046;-80
2022/02/11 15:25:06;;;;;;;819.00;442.50;;;;;;;;;;4949341;28;20374;-82
2022/02/11 15:27:32;;;;;;;821.78;447.23;;;;;;;;;;4949716;28;20122;-81
2022/02/11 15:29:59;;;;;;;825.38;447.92;;;;;;;;;;4971446;28;20139;-81
2022/02/11 15:32:25;;;;;;;823.58;449.75;;;;;;;;;;4951710;28;20027;-80
2022/02/11 15:34:51;;;;;;;828.05;455.30;;;;;;;;;;4950009;28;21227;-82
2022/02/11 15:37:17;;;;;;;823.15;452.73;;;;;;;;;;4950049;28;20116;-82
2022/02/11 15:39:44;;;;;;;825.88;454.75;;;;;;;;;;4958422;28;20040;-83
2022/02/11 15:42:10;;;;;;;823.60;457.45;;;;;;;;;;4946740;28;20039;-82
2022/02/11 15:44:36;;;;;;;827.47;458.33;;;;;;;;;;4983762;28;20101;-82
2022/02/11 15:47:03;;;;;;;826.90;463.55;;;;;;;;;;4959528;28;20036;-81
2022/02/11 15:49:29;;;;;;;832.75;454.98;;;;;;;;;;4946560;28;20062;-81
2022/02/11 15:51:55;;;;;;;824.22;456.35;;;;;;;;;;4961821;28;20198;-81
2022/02/11 15:54:21;;;;;;;821.50;451.88;;;;;;;;;;4969470;28;20455;-81
2022/02/11 15:56:47;;;;;;;827.60;458.65;;;;;;;;;;4973882;28;20551;-82
2022/02/11 15:59:13;;;;;;;826.22;457.73;;;;;;;;;;4993145;28;20134;-81
2022/02/11 16:01:39;;;;;;;826.95;462.13;;;;;;;;;;4980588;28;20162;-81
2022/02/11 16:04:07;;;;;;;822.25;454.40;;;;;;;;;;4982117;28;20023;-81
2022/02/11 16:06:33;;;;;;;823.03;447.88;;;;;;;;;;4982393;28;20050;-80
2022/02/11 16:08:58;;;;;;;822.65;447.02;;;;;;;;;;4982202;28;20017;-81
2022/02/11 16:11:24;;;;;;;824.47;456.75;;;;;;;;;;4998379;28;20112;-82
2022/02/11 16:13:50;;;;;;;819.53;441.08;;;;;;;;;;4987453;28;20035;-82
2022/02/11 16:16:16;;;;;;;825.33;453.13;;;;;;;;;;4974122;28;20078;-82
2022/02/11 16:18:42;;;;;;;823.30;444.33;;;;;;;;;;4997747;28;20042;-80
2022/02/11 16:21:08;;;;;;;823.25;444.55;;;;;;;;;;4965838;28;20080;-81
2022/02/11 16:23:40;;;;;;;824.25;444.83;;;;;;;;;;4964872;28;20025;-82
2022/02/11 16:26:06;;;;;;;825.75;447.92;;;;;;;;;;4960025;28;20043;-81
2022/02/11 16:28:33;;;;;;;823.58;444.52;;;;;;;;;;4968656;28;20430;-82
2022/02/11 16:31:19;;;;;;;821.97;434.58;;;;;;;;;;4953886;28;20383;-80
2022/02/11 16:33:50;;;;;;;819.95;434.30;;;;;;;;;;4955223;28;20023;-81
2022/02/11 16:36:16;;;;;;;821.88;435.83;;;;;;;;;;4963392;28;20377;-82
2022/02/11 16:38:43;;;;;;;818.53;431.48;;;;;;;;;;4960160;28;20029;-82
2022/02/11 16:41:09;;;;;;;821.85;437.17;;;;;;;;;;4974619;28;20052;-82
2022/02/11 16:43:36;;;;;;;819.22;425.48;;;;;;;;;;4985380;28;20353;-81
2022/02/11 16:46:01;;;;;;;816.17;419.92;;;;;;;;;;4965424;28;20037;-81
2022/02/11 16:48:28;;;;;;;820.58;427.38;;;;;;;;;;4961249;28;20118;-81
2022/02/11 16:50:54;;;;;;;817.33;422.92;;;;;;;;;;4951118;28;20023;-80
2022/02/11 16:53:21;;;;;;;810.97;410.63;;;;;;;;;;4960721;28;20584;-81
2022/02/11 16:55:47;;;;;;;817.88;418.98;;;;;;;;;;4966829;28;20029;-81
2022/02/11 16:58:14;;;;;;;818.25;418.98;;;;;;;;;;4943644;28;20032;-81
2022/02/11 17:00:40;;;;;;;815.58;415.17;;;;;;;;;;4975423;28;20096;-81
2022/02/11 17:03:06;;;;;;;818.13;423.08;;;;;;;;;;4950515;28;20425;-81
2022/02/11 17:05:33;;;;;;;814.45;411.35;;;;;;;;;;4970262;28;20035;-81
2022/02/11 17:07:59;;;;;;;814.85;413.67;;;;;;;;;;4944584;28;20083;-80
2022/02/11 17:10:26;;;;;;;813.13;412.55;;;;;;;;;;4955035;28;20601;-81
2022/02/11 17:12:56;;;;;;;814.63;408.55;;;;;;;;;;4951320;28;20035;-81
2022/02/11 17:15:22;;;;;;;812.55;403.90;;;;;;;;;;4964033;28;20406;-81
2022/02/11 17:17:48;;;;;;;813.92;406.83;;;;;;;;;;4977523;28;20043;-81
2022/02/11 17:20:14;;;;;;;813.92;409.45;;;;;;;;;;4961028;28;20162;-81
2022/02/11 17:22:41;;;;;;;815.05;415.13;;;;;;;;;;4951894;28;20039;-81
2022/02/11 17:25:08;;;;;;;816.75;415.27;;;;;;;;;;4961845;28;20402;-81
2022/02/11 17:27:34;;;;;;;815.90;416.08;;;;;;;;;;4965606;28;20019;-81
2022/02/11 17:30:00;;;;;;;816.55;414.55;;;;;;;;;;4975044;28;20029;-82
2022/02/11 17:32:27;;;;;;;815.60;417.23;;;;;;;;;;4944139;28;20097;-81
2022/02/11 17:34:53;;;;;;;816.88;416.98;;;;;;;;;;4979052;28;20027;-81
2022/02/11 17:37:19;;;;;;;814.67;411.05;;;;;;;;;;4959865;28;20536;-81
2022/02/11 17:39:46;;;;;;;816.30;420.52;;;;;;;;;;5031621;28;20053;-80
2022/02/11 17:42:15;;;;;;;816.72;421.42;;;;;;;;;;4974794;28;20052;-81
2022/02/11 17:44:41;;;;;;;818.05;419.83;;;;;;;;;;5000904;28;20434;-81
2022/02/11 17:47:07;;;;;;;815.40;415.20;;;;;;;;;;4963263;28;20084;-81
2022/02/11 17:49:33;;;;;;;816.30;420.50;;;;;;;;;;4964279;28;20027;-81
2022/02/11 17:51:59;;;;;;;816.42;417.60;;;;;;;;;;4967011;28;20085;-81
2022/02/11 17:54:25;;;;;;;815.85;418.63;;;;;;;;;;4973643;28;20031;-81